Time;durP1;ratioP1;P1;durP2;ratioP2;P2;SDS_P1;SDS_P2;PMS_P1;PMS_P2;Temp;Humidity;BMP_temperature;BMP_pressure;BME280_temperature;BME280_humidity;BME280_pressure;Samples;Min_cycle;Max_cycle;Signal;HPM_P1;HPM_P2
2023/10/22 00:01:15;;;;;;;1.90;0.70;;;15.60;89.80;;;;;;4974581;28;20457;-80
2023/10/22 00:03:40;;;;;;;1.83;0.70;;;15.50;89.70;;;;;;4956558;28;20077;-80
2023/10/22 00:06:06;;;;;;;2.20;0.88;;;15.50;89.70;;;;;;4974334;28;20023;-80
2023/10/22 00:08:31;;;;;;;1.10;0.60;;;15.50;89.70;;;;;;4956978;28;20074;-80
2023/10/22 00:10:57;;;;;;;1.25;0.75;;;15.50;89.80;;;;;;4956845;28;20051;-80
2023/10/22 00:13:22;;;;;;;1.05;0.60;;;15.50;89.90;;;;;;4956661;28;20106;-80
2023/10/22 00:15:48;;;;;;;1.85;0.80;;;15.50;89.90;;;;;;4974018;28;20031;-80
2023/10/22 00:18:14;;;;;;;1.65;0.88;;;15.50;89.80;;;;;;4956839;28;20085;-80
2023/10/22 00:20:41;;;;;;;1.38;0.47;;;15.60;89.80;;;;;;4956686;28;20054;-80
2023/10/22 00:23:07;;;;;;;1.00;0.50;;;15.50;89.90;;;;;;4956426;28;20026;-79
2023/10/22 00:25:35;;;;;;;1.35;0.70;;;15.50;90.00;;;;;;4956645;28;20023;-80
2023/10/22 00:28:00;;;;;;;2.08;0.60;;;15.50;90.10;;;;;;4956700;28;20023;-80
2023/10/22 00:30:26;;;;;;;0.93;0.60;;;15.50;90.10;;;;;;4956578;28;20054;-80
2023/10/22 00:32:51;;;;;;;1.75;0.70;;;15.60;89.80;;;;;;4956394;28;20393;-80
2023/10/22 00:35:17;;;;;;;1.23;0.60;;;15.60;89.60;;;;;;4956535;28;20149;-80
2023/10/22 00:37:42;;;;;;;1.65;0.55;;;15.60;89.60;;;;;;4956401;28;20027;-80
2023/10/22 00:40:08;;;;;;;0.93;0.60;;;15.60;89.40;;;;;;4956519;28;20031;-80
2023/10/22 00:42:34;;;;;;;1.65;0.63;;;15.70;89.60;;;;;;4956121;28;20560;-80
2023/10/22 00:44:59;;;;;;;2.28;0.82;;;15.70;89.60;;;;;;4956207;28;20252;-80
2023/10/22 00:47:25;;;;;;;2.47;0.80;;;15.60;89.60;;;;;;4956385;28;20058;-79
2023/10/22 00:49:50;;;;;;;2.15;0.70;;;15.60;89.50;;;;;;4956139;28;20114;-81
2023/10/22 00:52:17;;;;;;;2.03;0.70;;;15.60;89.60;;;;;;4956375;28;20074;-80
2023/10/22 00:54:43;;;;;;;1.67;0.60;;;15.60;89.60;;;;;;4956236;28;20019;-81
2023/10/22 00:57:09;;;;;;;1.00;0.60;;;15.60;89.70;;;;;;4973575;28;20733;-79
2023/10/22 00:59:35;;;;;;;1.30;0.60;;;15.60;89.60;;;;;;4956161;28;20023;-80
2023/10/22 01:02:01;;;;;;;1.58;0.70;;;15.60;89.50;;;;;;4973608;28;20030;-80
2023/10/22 01:04:26;;;;;;;0.98;0.57;;;15.60;89.40;;;;;;4955895;28;20027;-81
2023/10/22 01:06:52;;;;;;;0.93;0.60;;;15.50;89.40;;;;;;4956283;28;20078;-81
2023/10/22 01:09:17;;;;;;;1.25;0.70;;;15.60;89.70;;;;;;4959996;28;20481;-79
2023/10/22 01:12:04;;;;;;;1.08;0.60;;;15.50;89.70;;;;;;4960164;28;20018;-80
2023/10/22 01:14:30;;;;;;;1.52;0.57;;;15.50;89.70;;;;;;4959883;28;20019;-80
2023/10/22 01:16:56;;;;;;;2.22;0.70;;;15.60;89.80;;;;;;4959866;28;20085;-80
2023/10/22 01:19:22;;;;;;;2.20;0.80;;;15.50;89.80;;;;;;4959906;28;20089;-80
2023/10/22 01:21:47;;;;;;;1.73;0.70;;;15.60;89.90;;;;;;4959770;28;20042;-80
2023/10/22 01:24:13;;;;;;;1.83;0.68;;;15.50;89.50;;;;;;4959651;28;20022;-81
2023/10/22 01:26:43;;;;;;;1.25;0.63;;;15.50;89.90;;;;;;4960009;28;20027;-79
2023/10/22 01:29:10;;;;;;;1.67;0.80;;;15.60;90.00;;;;;;4976902;28;20030;-80
2023/10/22 01:31:36;;;;;;;2.03;0.80;;;15.50;89.70;;;;;;4959742;28;20474;-80
2023/10/22 01:34:01;;;;;;;2.42;0.60;;;15.50;89.80;;;;;;4976851;28;20031;-80
2023/10/22 01:36:27;;;;;;;1.45;0.60;;;15.50;89.90;;;;;;4959571;28;20027;-80
2023/10/22 01:38:52;;;;;;;1.48;0.50;;;15.50;89.90;;;;;;4976866;28;20424;-80
2023/10/22 01:41:18;;;;;;;1.42;0.60;;;15.50;90.10;;;;;;4959638;28;20100;-80
2023/10/22 01:43:43;;;;;;;0.60;0.50;;;15.60;90.20;;;;;;4959215;28;20110;-80
2023/10/22 01:46:09;;;;;;;1.85;0.50;;;15.60;90.10;;;;;;4976705;28;20089;-80
2023/10/22 01:48:35;;;;;;;0.65;0.50;;;15.50;90.10;;;;;;4959448;28;20073;-80
2023/10/22 01:51:00;;;;;;;2.08;0.70;;;15.60;89.50;;;;;;4959218;28;20027;-80
2023/10/22 01:53:26;;;;;;;2.10;0.60;;;15.60;89.70;;;;;;4959058;28;20023;-80
2023/10/22 01:55:51;;;;;;;1.83;0.65;;;15.60;89.50;;;;;;4959280;28;20362;-80
2023/10/22 01:58:17;;;;;;;1.38;0.57;;;15.60;89.60;;;;;;4976564;28;20029;-80
2023/10/22 02:00:43;;;;;;;1.23;0.60;;;15.60;89.60;;;;;;4959200;28;20019;-80
2023/10/22 02:03:08;;;;;;;1.70;0.57;;;15.60;89.50;;;;;;4958745;28;20106;-80
2023/10/22 02:05:34;;;;;;;1.10;0.52;;;15.60;89.60;;;;;;4959078;28;20030;-80
2023/10/22 02:08:01;;;;;;;1.85;0.77;;;15.60;89.60;;;;;;4959064;28;20018;-80
2023/10/22 02:10:26;;;;;;;2.00;0.60;;;15.60;89.60;;;;;;4959124;28;20034;-80
2023/10/22 02:12:52;;;;;;;1.75;0.70;;;15.60;89.60;;;;;;4958641;28;20389;-80
2023/10/22 02:15:17;;;;;;;1.67;0.60;;;15.50;89.50;;;;;;4958996;28;20157;-80
2023/10/22 02:17:43;;;;;;;1.38;0.70;;;15.60;89.50;;;;;;4976221;28;20481;-80
2023/10/22 02:20:09;;;;;;;1.77;0.68;;;15.50;89.70;;;;;;4958877;28;20037;-80
2023/10/22 02:22:38;;;;;;;1.45;0.88;;;15.50;89.70;;;;;;4958469;28;20588;-80
2023/10/22 02:25:05;;;;;;;0.88;0.55;;;15.50;89.70;;;;;;4976145;28;20452;-80
2023/10/22 02:27:31;;;;;;;1.27;0.60;;;15.50;89.80;;;;;;4954699;28;20034;-80
2023/10/22 02:29:57;;;;;;;1.65;0.60;;;15.60;89.80;;;;;;4972516;28;20374;-81
2023/10/22 02:32:22;;;;;;;1.48;0.70;;;15.50;89.90;;;;;;4958642;28;20018;-80
2023/10/22 02:34:48;;;;;;;0.95;0.50;;;15.60;90.00;;;;;;4958584;28;20650;-80
2023/10/22 02:37:14;;;;;;;1.60;0.60;;;15.60;90.00;;;;;;4958576;28;20441;-80
2023/10/22 02:39:40;;;;;;;1.65;0.80;;;15.50;90.00;;;;;;4975830;28;20027;-81
2023/10/22 02:42:05;;;;;;;1.58;0.60;;;15.50;90.00;;;;;;4958484;28;20408;-80
2023/10/22 02:44:31;;;;;;;1.30;0.50;;;15.50;90.00;;;;;;4958452;28;20038;-81
2023/10/22 02:46:59;;;;;;;1.95;0.60;;;15.50;90.00;;;;;;4958329;28;20035;-80
2023/10/22 02:49:24;;;;;;;0.75;0.40;;;15.50;90.00;;;;;;4958353;28;20445;-80
2023/10/22 02:51:50;;;;;;;1.48;0.68;;;15.50;90.00;;;;;;4958372;28;20030;-81
2023/10/22 02:54:16;;;;;;;0.80;0.50;;;15.50;90.00;;;;;;4975530;28;20054;-80
2023/10/22 02:56:42;;;;;;;1.67;0.50;;;15.50;90.00;;;;;;4958245;28;20076;-80
2023/10/22 02:59:07;;;;;;;1.33;0.52;;;15.50;90.10;;;;;;4975551;28;20026;-80
2023/10/22 03:01:33;;;;;;;1.10;0.60;;;15.50;90.10;;;;;;4958016;28;20039;-80
2023/10/22 03:03:58;;;;;;;1.77;0.60;;;15.50;89.90;;;;;;4957754;28;20118;-79
2023/10/22 03:06:24;;;;;;;1.10;0.60;;;15.50;89.70;;;;;;4958170;28;20027;-80
2023/10/22 03:08:49;;;;;;;1.80;0.50;;;15.60;89.60;;;;;;4957822;28;20030;-80
2023/10/22 03:11:17;;;;;;;0.70;0.50;;;15.60;89.50;;;;;;4957941;28;20026;-80
2023/10/22 03:13:43;;;;;;;1.42;0.60;;;15.60;89.40;;;;;;4957693;28;20023;-80
2023/10/22 03:16:11;;;;;;;1.30;0.63;;;15.60;89.60;;;;;;4975187;28;20015;-79
2023/10/22 03:18:37;;;;;;;1.60;0.68;;;15.60;89.70;;;;;;4957872;28;20030;-80
2023/10/22 03:21:16;;;;;;;1.15;0.60;;;15.60;89.50;;;;;;4957717;28;20042;-80
2023/10/22 03:23:42;;;;;;;1.30;0.40;;;15.60;89.60;;;;;;4957435;28;20033;-80
2023/10/22 03:26:09;;;;;;;1.17;0.70;;;15.60;89.60;;;;;;4957579;28;20085;-80
2023/10/22 03:28:38;;;;;;;2.53;0.70;;;15.60;89.50;;;;;;4974924;28;20477;-80
2023/10/22 03:31:07;;;;;;;2.03;0.85;;;15.50;89.50;;;;;;4956939;28;20054;-80
2023/10/22 03:33:33;;;;;;;1.65;0.60;;;15.50;89.70;;;;;;4974530;28;20026;-80
2023/10/22 03:36:00;;;;;;;1.83;0.80;;;15.60;89.60;;;;;;4957510;28;20039;-80
2023/10/22 03:38:26;;;;;;;1.50;0.60;;;15.50;89.80;;;;;;4974771;28;20023;-80
2023/10/22 03:41:03;;;;;;;1.33;0.68;;;15.50;89.80;;;;;;4974643;28;20109;-80
2023/10/22 03:43:30;;;;;;;2.13;0.70;;;15.50;89.80;;;;;;4974383;28;20050;-80
2023/10/22 03:45:57;;;;;;;2.00;0.70;;;15.50;90.00;;;;;;4974413;28;20564;-80
2023/10/22 03:48:26;;;;;;;1.00;0.60;;;15.50;89.90;;;;;;4957280;28;20073;-80
2023/10/22 03:50:52;;;;;;;1.23;0.50;;;15.50;89.90;;;;;;4957213;28;20113;-80
2023/10/22 03:53:18;;;;;;;0.90;0.52;;;15.50;89.90;;;;;;4956811;28;20106;-80
2023/10/22 03:55:44;;;;;;;0.88;0.60;;;15.50;89.90;;;;;;4957248;28;20027;-81
2023/10/22 03:58:10;;;;;;;3.00;0.63;;;15.50;90.00;;;;;;4974358;28;20097;-80
2023/10/22 04:00:35;;;;;;;0.80;0.50;;;15.50;90.00;;;;;;4957068;28;20030;-80
2023/10/22 04:03:01;;;;;;;1.27;0.50;;;15.50;90.00;;;;;;4956833;28;20645;-80
2023/10/22 04:05:27;;;;;;;1.67;0.50;;;15.50;90.00;;;;;;4957023;28;20034;-80
2023/10/22 04:07:53;;;;;;;1.85;0.88;;;15.50;90.00;;;;;;4974188;28;20106;-80
2023/10/22 04:10:19;;;;;;;1.30;0.50;;;15.50;90.00;;;;;;4956728;28;20118;-80
2023/10/22 04:12:44;;;;;;;2.53;0.70;;;15.50;90.00;;;;;;4974261;28;20034;-80
2023/10/22 04:15:11;;;;;;;1.15;0.57;;;15.50;90.10;;;;;;4956742;28;20025;-80
2023/10/22 04:17:37;;;;;;;1.13;0.52;;;15.50;90.20;;;;;;4956873;28;20023;-80
2023/10/22 04:20:03;;;;;;;0.88;0.50;;;15.50;90.00;;;;;;4956611;28;20026;-81
2023/10/22 04:22:28;;;;;;;1.50;0.60;;;15.50;89.90;;;;;;4956606;28;20121;-80
2023/10/22 04:24:54;;;;;;;1.83;0.60;;;15.50;89.80;;;;;;4956603;28;20023;-80
2023/10/22 04:27:19;;;;;;;0.63;0.40;;;15.60;89.80;;;;;;4952247;28;20123;-79
2023/10/22 04:29:46;;;;;;;1.55;0.60;;;15.60;89.70;;;;;;4956203;28;20034;-80
2023/10/22 04:32:13;;;;;;;1.35;0.63;;;15.60;89.60;;;;;;4956429;28;20051;-80
2023/10/22 04:34:39;;;;;;;0.88;0.40;;;15.60;89.70;;;;;;4956352;28;20393;-81
2023/10/22 04:37:06;;;;;;;1.13;0.50;;;15.60;89.70;;;;;;4956641;28;20548;-80
2023/10/22 04:39:32;;;;;;;0.82;0.45;;;15.60;89.70;;;;;;4956459;28;20496;-80
2023/10/22 04:41:57;;;;;;;1.73;0.82;;;15.60;89.80;;;;;;4955745;28;20077;-80
2023/10/22 04:44:23;;;;;;;1.00;0.50;;;15.60;89.80;;;;;;4956230;28;20030;-81
2023/10/22 04:46:51;;;;;;;0.98;0.40;;;15.60;89.90;;;;;;4955739;28;20062;-80
2023/10/22 04:49:16;;;;;;;0.88;0.50;;;15.50;89.90;;;;;;4973231;28;20026;-80
2023/10/22 04:51:42;;;;;;;1.65;0.50;;;15.50;89.90;;;;;;4956345;28;20500;-81
2023/10/22 04:54:07;;;;;;;1.00;0.52;;;15.50;90.00;;;;;;4955942;28;20027;-80
2023/10/22 04:56:34;;;;;;;1.42;0.52;;;15.50;90.00;;;;;;4973700;28;20023;-80
2023/10/22 04:59:00;;;;;;;1.73;0.50;;;15.50;90.10;;;;;;4973654;28;20401;-80
2023/10/22 05:01:25;;;;;;;0.90;0.50;;;15.50;90.10;;;;;;4957354;28;20027;-80
2023/10/22 05:03:51;;;;;;;1.70;0.60;;;15.50;90.10;;;;;;4955926;28;20030;-81
2023/10/22 05:06:16;;;;;;;1.05;0.40;;;15.50;90.00;;;;;;4973446;28;20041;-80
2023/10/22 05:08:42;;;;;;;2.17;0.52;;;15.50;90.00;;;;;;4956095;28;20102;-80
2023/10/22 05:11:15;;;;;;;0.30;0.30;;;15.50;90.10;;;;;;4956245;28;20042;-81
2023/10/22 05:13:43;;;;;;;0.75;0.40;;;15.50;90.10;;;;;;4955950;28;20029;-80
2023/10/22 05:16:10;;;;;;;1.00;0.45;;;15.50;90.10;;;;;;4973645;28;20027;-80
2023/10/22 05:18:36;;;;;;;0.85;0.57;;;15.60;90.10;;;;;;4973598;28;20018;-81
2023/10/22 05:21:04;;;;;;;1.73;0.60;;;15.50;90.10;;;;;;4955977;28;20046;-80
2023/10/22 05:23:30;;;;;;;1.58;0.40;;;15.50;90.10;;;;;;4955728;28;20023;-80
2023/10/22 05:26:03;;;;;;;1.40;0.40;;;15.50;90.00;;;;;;4956203;28;20046;-80
2023/10/22 05:28:29;;;;;;;1.27;0.40;;;15.50;90.10;;;;;;4956016;28;20019;-80
2023/10/22 05:30:54;;;;;;;0.80;0.40;;;15.50;90.20;;;;;;4956023;28;20030;-80
2023/10/22 05:33:20;;;;;;;0.73;0.40;;;15.50;90.20;;;;;;4955804;28;20500;-80
2023/10/22 05:35:45;;;;;;;1.67;0.47;;;15.50;90.10;;;;;;4956099;28;20110;-81
2023/10/22 05:38:11;;;;;;;1.17;0.47;;;15.50;90.00;;;;;;4955889;28;20102;-80
2023/10/22 05:40:37;;;;;;;0.85;0.55;;;15.60;90.00;;;;;;4955839;28;20481;-80
2023/10/22 05:43:02;;;;;;;1.45;0.55;;;15.60;89.90;;;;;;4955610;28;20031;-80
2023/10/22 05:45:28;;;;;;;0.88;0.40;;;15.60;89.90;;;;;;4962704;28;20038;-80
2023/10/22 05:47:54;;;;;;;0.98;0.45;;;15.60;89.80;;;;;;4955961;28;20489;-80
2023/10/22 05:50:19;;;;;;;1.13;0.60;;;15.60;89.80;;;;;;4955854;28;20050;-80
2023/10/22 05:52:45;;;;;;;0.75;0.45;;;15.60;89.80;;;;;;4955741;28;20088;-80
2023/10/22 05:55:13;;;;;;;1.50;0.47;;;15.60;89.90;;;;;;4959030;28;20113;-81
2023/10/22 05:57:39;;;;;;;0.90;0.50;;;15.60;89.80;;;;;;4959338;28;20030;-81
2023/10/22 06:00:07;;;;;;;0.75;0.50;;;15.60;89.90;;;;;;4959280;28;20018;-80
2023/10/22 06:02:32;;;;;;;0.60;0.50;;;15.50;89.90;;;;;;4976260;28;20481;-80
2023/10/22 06:04:59;;;;;;;0.47;0.40;;;15.50;90.00;;;;;;4959180;28;20082;-80
2023/10/22 06:07:24;;;;;;;0.80;0.40;;;15.50;90.00;;;;;;4959129;28;20508;-80
2023/10/22 06:09:50;;;;;;;2.00;0.57;;;15.50;90.00;;;;;;4976256;28;20026;-81
2023/10/22 06:12:16;;;;;;;0.38;0.28;;;15.50;90.00;;;;;;4944845;29;20509;-79
2023/10/22 06:14:41;;;;;;;1.33;0.47;;;15.50;90.00;;;;;;4939702;29;20023;-80
2023/10/22 06:17:07;;;;;;;1.05;0.50;;;15.50;90.00;;;;;;4939956;29;20106;-80
2023/10/22 06:19:33;;;;;;;0.38;0.35;;;15.50;90.10;;;;;;4956986;29;20030;-81
2023/10/22 06:21:58;;;;;;;1.25;0.45;;;15.50;90.10;;;;;;4956708;29;20039;-80
2023/10/22 06:24:24;;;;;;;1.02;0.32;;;15.50;90.10;;;;;;4939452;29;20023;-79
2023/10/22 06:26:49;;;;;;;0.30;0.30;;;15.50;90.10;;;;;;4939712;29;20034;-80
2023/10/22 06:29:15;;;;;;;0.50;0.40;;;15.50;90.00;;;;;;4939456;29;20552;-80
2023/10/22 06:31:40;;;;;;;0.57;0.30;;;15.50;90.10;;;;;;4939576;29;20020;-81
2023/10/22 06:34:06;;;;;;;0.77;0.35;;;15.50;90.10;;;;;;4956258;28;20082;-80
2023/10/22 06:36:31;;;;;;;1.15;0.30;;;15.50;90.10;;;;;;4939615;29;20034;-80
2023/10/22 06:38:57;;;;;;;0.65;0.40;;;15.50;90.10;;;;;;4939420;29;20033;-80
2023/10/22 06:41:27;;;;;;;0.65;0.40;;;15.50;90.10;;;;;;4939636;29;20473;-80
2023/10/22 06:43:53;;;;;;;0.65;0.40;;;15.50;90.10;;;;;;4938966;29;20035;-79
2023/10/22 06:46:19;;;;;;;0.85;0.50;;;15.50;90.00;;;;;;4939105;29;20114;-80
2023/10/22 06:48:45;;;;;;;0.30;0.30;;;15.50;90.10;;;;;;4939016;29;20571;-80
2023/10/22 06:51:17;;;;;;;1.27;0.30;;;15.50;90.10;;;;;;4956432;29;20023;-80
2023/10/22 06:53:44;;;;;;;1.27;0.50;;;15.60;90.00;;;;;;4938804;29;20032;-79
2023/10/22 06:56:12;;;;;;;1.35;0.50;;;15.60;89.90;;;;;;4938933;29;20031;-80
2023/10/22 06:58:37;;;;;;;1.58;0.30;;;15.60;89.80;;;;;;4939181;29;20465;-79
2023/10/22 07:01:04;;;;;;;0.98;0.40;;;15.60;89.80;;;;;;4938904;29;20031;-80
2023/10/22 07:03:29;;;;;;;0.75;0.40;;;15.60;89.70;;;;;;4938735;29;20102;-80
2023/10/22 07:05:55;;;;;;;0.75;0.40;;;15.60;89.60;;;;;;4938064;29;20466;-80
2023/10/22 07:08:20;;;;;;;0.82;0.40;;;15.60;89.70;;;;;;4956215;29;20037;-80
2023/10/22 07:10:46;;;;;;;0.95;0.38;;;15.60;89.70;;;;;;4938840;29;20101;-80
2023/10/22 07:13:11;;;;;;;1.75;0.57;;;15.60;89.70;;;;;;4938497;29;20054;-80
2023/10/22 07:15:37;;;;;;;0.88;0.40;;;15.60;89.70;;;;;;4955837;29;20071;-80
2023/10/22 07:18:02;;;;;;;0.82;0.30;;;15.60;89.70;;;;;;4938559;29;20020;-80
2023/10/22 07:20:28;;;;;;;0.80;0.40;;;15.60;89.80;;;;;;4938744;29;20023;-80
2023/10/22 07:22:53;;;;;;;1.45;0.40;;;15.60;89.90;;;;;;4938325;29;20405;-80
2023/10/22 07:25:20;;;;;;;0.63;0.38;;;15.60;90.00;;;;;;4938467;29;20027;-80
2023/10/22 07:27:45;;;;;;;0.70;0.40;;;15.60;90.00;;;;;;4938425;29;20027;-80
2023/10/22 07:30:11;;;;;;;1.38;0.50;;;15.60;90.00;;;;;;4938446;29;20027;-80
2023/10/22 07:32:36;;;;;;;1.30;0.32;;;15.60;90.00;;;;;;4955528;28;20023;-80
2023/10/22 07:35:03;;;;;;;0.40;0.30;;;15.50;90.00;;;;;;4938271;29;20046;-80
2023/10/22 07:37:28;;;;;;;0.77;0.47;;;15.60;90.10;;;;;;4938377;29;20031;-80
2023/10/22 07:39:54;;;;;;;0.73;0.40;;;15.50;90.00;;;;;;4938359;29;20401;-80
2023/10/22 07:42:19;;;;;;;0.35;0.35;;;15.50;90.00;;;;;;4938086;29;20633;-80
2023/10/22 07:44:44;;;;;;;1.38;0.40;;;15.60;90.10;;;;;;4956336;28;20121;-81
2023/10/22 07:47:10;;;;;;;0.70;0.20;;;15.50;90.10;;;;;;4957313;28;20030;-80
2023/10/22 07:49:35;;;;;;;0.68;0.40;;;15.50;90.10;;;;;;4974678;28;20539;-80
2023/10/22 07:52:01;;;;;;;0.52;0.30;;;15.60;90.10;;;;;;4957241;28;20027;-80
2023/10/22 07:54:27;;;;;;;0.57;0.40;;;15.50;90.10;;;;;;4956952;28;20073;-80
2023/10/22 07:56:53;;;;;;;0.55;0.20;;;15.50;90.10;;;;;;4957062;28;20049;-80
2023/10/22 07:59:18;;;;;;;1.00;0.40;;;15.50;90.10;;;;;;4957039;28;20653;-80
2023/10/22 08:01:44;;;;;;;1.27;0.40;;;15.50;90.10;;;;;;4957061;28;20027;-80
2023/10/22 08:04:09;;;;;;;1.02;0.50;;;15.50;90.00;;;;;;4973842;28;20544;-80
2023/10/22 08:06:34;;;;;;;0.80;0.40;;;15.60;89.70;;;;;;4957298;28;20034;-80
2023/10/22 08:09:00;;;;;;;2.13;0.50;;;15.60;89.60;;;;;;4956723;28;20094;-80
2023/10/22 08:11:25;;;;;;;1.92;0.50;;;15.60;89.30;;;;;;4956765;28;20113;-80
2023/10/22 08:13:51;;;;;;;1.45;0.50;;;15.60;89.30;;;;;;4956591;28;20023;-81
2023/10/22 08:16:17;;;;;;;1.08;0.50;;;15.70;89.10;;;;;;4956793;28;20389;-80
2023/10/22 08:18:43;;;;;;;0.90;0.55;;;15.70;88.90;;;;;;4956725;28;20023;-80
2023/10/22 08:21:09;;;;;;;1.65;0.50;;;15.70;88.90;;;;;;4989010;28;20031;-79
2023/10/22 08:23:34;;;;;;;0.60;0.32;;;15.70;88.90;;;;;;4956421;28;20393;-80
2023/10/22 08:26:00;;;;;;;1.88;0.60;;;15.80;89.00;;;;;;4956752;28;20029;-80
2023/10/22 08:28:25;;;;;;;2.58;0.68;;;15.70;89.00;;;;;;4956670;28;20074;-80
2023/10/22 08:30:51;;;;;;;1.20;0.40;;;15.80;89.10;;;;;;4973903;28;20031;-80
2023/10/22 08:33:17;;;;;;;1.83;0.65;;;15.70;89.20;;;;;;4956235;28;20027;-80
2023/10/22 08:35:42;;;;;;;3.28;0.57;;;15.70;89.20;;;;;;4956680;28;20035;-80
2023/10/22 08:38:08;;;;;;;1.77;0.50;;;15.70;89.30;;;;;;4974101;28;20023;-80
2023/10/22 08:40:38;;;;;;;0.80;0.40;;;15.70;89.40;;;;;;4988863;28;20481;-80
2023/10/22 08:43:06;;;;;;;2.05;0.43;;;15.70;89.50;;;;;;4956153;28;20031;-81
2023/10/22 08:45:32;;;;;;;1.55;0.43;;;15.70;89.60;;;;;;4956435;28;20041;-81
2023/10/22 08:48:04;;;;;;;1.60;0.40;;;15.70;89.70;;;;;;4973727;28;20023;-80
2023/10/22 08:50:30;;;;;;;0.77;0.50;;;15.70;89.70;;;;;;4956543;28;20061;-80
2023/10/22 08:52:56;;;;;;;2.97;0.68;;;15.70;89.80;;;;;;4973236;28;20504;-80
2023/10/22 08:55:23;;;;;;;0.57;0.40;;;15.70;89.80;;;;;;4956405;28;20082;-80
2023/10/22 08:57:48;;;;;;;1.10;0.40;;;15.70;89.90;;;;;;4956311;28;20050;-79
2023/10/22 09:00:16;;;;;;;1.25;0.40;;;15.70;89.90;;;;;;4956291;28;20086;-80
2023/10/22 09:02:43;;;;;;;1.02;0.30;;;15.70;89.90;;;;;;4955972;28;20034;-80
2023/10/22 09:05:09;;;;;;;1.13;0.40;;;15.70;90.00;;;;;;4956307;28;20104;-79
2023/10/22 09:07:53;;;;;;;1.67;0.30;;;15.80;89.90;;;;;;4973571;28;20114;-81
2023/10/22 09:10:28;;;;;;;0.40;0.38;;;15.80;89.80;;;;;;4956245;28;20027;-80
2023/10/22 09:12:54;;;;;;;0.93;0.32;;;15.90;89.70;;;;;;4956090;28;20034;-81
2023/10/22 09:15:19;;;;;;;1.45;0.40;;;15.90;89.50;;;;;;4956170;28;20048;-80
2023/10/22 09:17:45;;;;;;;1.63;0.55;;;15.90;89.30;;;;;;4956129;28;20649;-80
2023/10/22 09:20:21;;;;;;;0.90;0.43;;;15.90;89.40;;;;;;4956165;28;20065;-80
2023/10/22 09:22:48;;;;;;;0.70;0.40;;;15.90;89.30;;;;;;4956032;28;20117;-78
2023/10/22 09:25:16;;;;;;;1.40;0.40;;;16.00;89.30;;;;;;4956098;28;20027;-80
2023/10/22 09:27:41;;;;;;;0.85;0.45;;;16.00;89.30;;;;;;4956056;28;20121;-80
2023/10/22 09:30:07;;;;;;;1.02;0.50;;;16.00;89.10;;;;;;4976743;28;20110;-80
2023/10/22 09:32:33;;;;;;;0.60;0.30;;;16.10;89.10;;;;;;4959424;28;20034;-80
2023/10/22 09:35:13;;;;;;;1.00;0.40;;;16.10;89.10;;;;;;4959608;28;20117;-79
2023/10/22 09:37:53;;;;;;;0.87;0.30;;;16.10;89.00;;;;;;4959650;28;20410;-80
2023/10/22 09:40:20;;;;;;;0.93;0.30;;;16.00;88.90;;;;;;4976991;28;20270;-80
2023/10/22 09:42:48;;;;;;;1.20;0.40;;;16.00;89.00;;;;;;4959473;28;20031;-80
2023/10/22 09:45:14;;;;;;;1.17;0.30;;;16.00;89.10;;;;;;4959679;28;20073;-80
2023/10/22 09:47:42;;;;;;;1.35;0.50;;;16.00;89.30;;;;;;4977041;28;20054;-80
2023/10/22 09:50:12;;;;;;;1.00;0.32;;;16.00;89.80;;;;;;4959502;28;20557;-80
2023/10/22 09:52:42;;;;;;;1.70;0.30;;;15.90;89.40;;;;;;4959255;28;20026;-80
2023/10/22 09:55:14;;;;;;;1.27;0.40;;;15.90;89.50;;;;;;4959303;28;20022;-80
2023/10/22 09:57:40;;;;;;;0.88;0.40;;;15.90;89.60;;;;;;4959532;28;20034;-81
2023/10/22 10:00:12;;;;;;;1.27;0.38;;;15.90;89.70;;;;;;4959200;28;20023;-80
2023/10/22 10:02:42;;;;;;;;;;;15.90;89.80;;;;;;4959396;28;20023;-80
2023/10/22 10:05:11;;;;;;;0.50;0.30;;;15.90;89.90;;;;;;4959192;28;20392;-80
2023/10/22 10:07:38;;;;;;;0.85;0.50;;;15.90;89.90;;;;;;4959039;28;20035;-80
2023/10/22 10:10:05;;;;;;;0.45;0.35;;;15.90;89.90;;;;;;4976421;28;20074;-80
2023/10/22 10:12:34;;;;;;;0.77;0.20;;;15.90;89.90;;;;;;4958723;28;20102;-80
2023/10/22 10:14:59;;;;;;;0.47;0.40;;;15.90;89.90;;;;;;4958901;28;20073;-81
2023/10/22 10:17:25;;;;;;;1.13;0.40;;;15.90;89.90;;;;;;4991327;28;20022;-80
2023/10/22 10:19:51;;;;;;;0.52;0.30;;;15.90;89.80;;;;;;4959085;28;20507;-80
2023/10/22 10:22:38;;;;;;;0.38;0.20;;;15.90;89.80;;;;;;4958695;28;20031;-80
2023/10/22 10:25:25;;;;;;;1.17;0.40;;;16.00;89.80;;;;;;4976193;28;20030;-80
2023/10/22 10:27:52;;;;;;;0.15;0.15;;;16.00;89.80;;;;;;4976112;28;20448;-81
2023/10/22 10:30:20;;;;;;;1.02;0.50;;;16.00;89.70;;;;;;4976028;28;20039;-81
2023/10/22 10:32:48;;;;;;;0.73;0.30;;;16.00;89.60;;;;;;4958455;28;20396;-80
2023/10/22 10:35:15;;;;;;;0.30;0.22;;;16.10;89.60;;;;;;4958669;28;20077;-80
2023/10/22 10:38:21;;;;;;;0.90;0.40;;;16.10;89.50;;;;;;4958730;28;20022;-80
2023/10/22 10:40:49;;;;;;;0.55;0.30;;;16.10;89.30;;;;;;4974573;28;20031;-79
2023/10/22 10:43:15;;;;;;;0.65;0.38;;;16.20;89.10;;;;;;4958172;28;20030;-79
2023/10/22 10:46:18;;;;;;;0.50;0.40;;;16.20;88.90;;;;;;4958355;28;20034;-80
2023/10/22 10:48:47;;;;;;;0.95;0.30;;;16.30;88.70;;;;;;4975392;28;20115;-80
2023/10/22 10:51:20;;;;;;;0.60;0.30;;;16.30;88.70;;;;;;4975613;28;20030;-80
2023/10/22 10:54:04;;;;;;;0.40;0.30;;;16.30;88.60;;;;;;4958153;28;20033;-80
2023/10/22 10:56:55;;;;;;;0.82;0.30;;;16.30;88.60;;;;;;4975641;28;20658;-80
2023/10/22 10:59:32;;;;;;;0.55;0.20;;;16.30;88.70;;;;;;4959040;28;20030;-78
2023/10/22 11:02:07;;;;;;;0.60;0.40;;;16.30;88.80;;;;;;4975285;28;20054;-80
2023/10/22 11:04:34;;;;;;;1.08;0.47;;;16.20;89.00;;;;;;4958003;28;20118;-80
2023/10/22 11:07:00;;;;;;;0.50;0.30;;;16.20;89.10;;;;;;4975544;28;20057;-81
2023/10/22 11:09:26;;;;;;;0.30;0.30;;;16.20;89.20;;;;;;4957251;28;20058;-80
2023/10/22 11:11:59;;;;;;;0.98;0.40;;;16.20;89.20;;;;;;4960238;28;20019;-80
2023/10/22 11:14:26;;;;;;;0.85;0.40;;;16.20;89.30;;;;;;4944304;28;20078;-81
2023/10/22 11:16:53;;;;;;;0.38;0.30;;;16.20;89.30;;;;;;4938943;29;20095;-81
2023/10/22 11:19:21;;;;;;;0.38;0.25;;;16.20;89.30;;;;;;4955726;29;20027;-79
2023/10/22 11:21:48;;;;;;;0.80;0.30;;;16.20;89.40;;;;;;4938703;29;20065;-79
2023/10/22 11:24:14;;;;;;;0.68;0.30;;;16.20;89.30;;;;;;4938475;29;20034;-79
2023/10/22 11:26:40;;;;;;;1.00;0.40;;;16.20;89.30;;;;;;4938688;29;20430;-80
2023/10/22 11:29:06;;;;;;;0.35;0.20;;;16.20;89.30;;;;;;4938568;29;20058;-81
2023/10/22 11:31:31;;;;;;;0.38;0.30;;;16.20;89.30;;;;;;4938442;29;20075;-80
2023/10/22 11:34:15;;;;;;;0.93;0.30;;;16.20;89.20;;;;;;4938074;29;20015;-80
2023/10/22 11:36:40;;;;;;;0.65;0.35;;;16.30;89.10;;;;;;4955593;29;20031;-80
2023/10/22 11:39:19;;;;;;;0.63;0.30;;;16.30;89.00;;;;;;4938391;29;20050;-80
2023/10/22 11:41:45;;;;;;;1.02;0.30;;;16.30;88.90;;;;;;4955465;29;20027;-80
2023/10/22 11:44:36;;;;;;;0.30;0.30;;;16.30;88.90;;;;;;4938149;29;20482;-80
2023/10/22 11:47:23;;;;;;;0.75;0.28;;;16.30;88.80;;;;;;4955314;29;20413;-80
2023/10/22 11:49:49;;;;;;;0.57;0.32;;;16.40;88.80;;;;;;4938177;29;20639;-80
2023/10/22 11:52:35;;;;;;;0.20;0.20;;;16.40;88.80;;;;;;4937330;29;20047;-80
2023/10/22 11:55:19;;;;;;;1.00;0.40;;;16.40;88.90;;;;;;4937952;29;20030;-80
2023/10/22 11:57:46;;;;;;;0.90;0.35;;;16.40;89.20;;;;;;4937967;29;20019;-80
2023/10/22 12:00:12;;;;;;;0.30;0.30;;;16.40;88.60;;;;;;4955117;29;20027;-80
2023/10/22 12:02:42;;;;;;;0.43;0.20;;;16.50;88.60;;;;;;4937671;28;20114;-81
2023/10/22 12:05:09;;;;;;;0.38;0.30;;;16.50;88.50;;;;;;4937863;29;20113;-80
2023/10/22 12:07:34;;;;;;;0.55;0.30;;;16.50;88.40;;;;;;4952243;28;20061;-80
2023/10/22 12:10:00;;;;;;;0.73;0.40;;;16.50;88.20;;;;;;4956901;28;20059;-80
2023/10/22 12:12:25;;;;;;;1.08;0.30;;;16.50;88.20;;;;;;4956648;28;20090;-80
2023/10/22 12:14:51;;;;;;;1.02;0.30;;;16.50;88.30;;;;;;4974052;28;20019;-80
2023/10/22 12:17:17;;;;;;;0.20;0.20;;;16.50;88.40;;;;;;4974031;28;20058;-78
2023/10/22 12:19:43;;;;;;;0.98;0.30;;;16.50;88.40;;;;;;4974119;28;20057;-80
2023/10/22 12:22:08;;;;;;;0.20;0.20;;;16.50;88.50;;;;;;4956625;28;20027;-79
2023/10/22 12:24:34;;;;;;;0.40;0.35;;;16.50;88.50;;;;;;4956676;28;20031;-80
2023/10/22 12:26:59;;;;;;;0.73;0.40;;;16.50;88.60;;;;;;4956801;28;20027;-80
2023/10/22 12:29:25;;;;;;;0.40;0.35;;;16.50;88.60;;;;;;4956504;28;20057;-80
2023/10/22 12:31:51;;;;;;;0.55;0.38;;;16.50;88.70;;;;;;4956571;28;20033;-81
2023/10/22 12:34:17;;;;;;;0.20;0.20;;;16.50;88.80;;;;;;4956320;28;20030;-81
2023/10/22 12:36:43;;;;;;;0.50;0.30;;;16.40;88.90;;;;;;4956640;28;20034;-80
2023/10/22 12:39:09;;;;;;;0.38;0.30;;;16.40;89.00;;;;;;4988851;28;20030;-81
2023/10/22 12:41:34;;;;;;;0.40;0.28;;;16.40;89.00;;;;;;4956658;28;20023;-80
2023/10/22 12:44:00;;;;;;;1.27;0.30;;;16.40;89.10;;;;;;4973508;28;20026;-80
2023/10/22 12:46:26;;;;;;;0.25;0.20;;;16.30;89.20;;;;;;4988571;28;20039;-80
2023/10/22 12:48:52;;;;;;;0.57;0.30;;;16.40;89.30;;;;;;4956314;28;20049;-81